sensor_id;sensor_type;location;lat;lon;timestamp;pressure;altitude;pressure_sealevel;temperature;humidity
58979;BME280;44763;50.464;30.612;2023-08-20T00:01:53;100685.70;;;23.05;92.14
58979;BME280;44763;50.464;30.612;2023-08-20T00:03:57;100683.15;;;23.01;92.82
58979;BME280;44763;50.464;30.612;2023-08-20T00:06:00;100683.80;;;22.99;93.03
58979;BME280;44763;50.464;30.612;2023-08-20T00:08:05;100685.03;;;22.96;93.47
58979;BME280;44763;50.464;30.612;2023-08-20T00:10:07;100687.39;;;22.92;93.53
58979;BME280;44763;50.464;30.612;2023-08-20T00:12:09;100692.91;;;22.88;93.85
58979;BME280;44763;50.464;30.612;2023-08-20T00:14:17;100689.08;;;22.84;93.61
58979;BME280;44763;50.464;30.612;2023-08-20T00:16:19;100690.17;;;22.85;93.36
58979;BME280;44763;50.464;30.612;2023-08-20T00:18:22;100686.29;;;22.89;93.17
58979;BME280;44763;50.464;30.612;2023-08-20T00:20:24;100682.73;;;22.91;92.62
58979;BME280;44763;50.464;30.612;2023-08-20T00:22:27;100682.03;;;22.94;92.80
58979;BME280;44763;50.464;30.612;2023-08-20T00:24:29;100683.46;;;22.97;92.79
58979;BME280;44763;50.464;30.612;2023-08-20T00:26:31;100684.10;;;22.97;93.27
58979;BME280;44763;50.464;30.612;2023-08-20T00:28:33;100681.64;;;22.93;93.21
58979;BME280;44763;50.464;30.612;2023-08-20T00:30:37;100681.30;;;22.90;93.69
58979;BME280;44763;50.464;30.612;2023-08-20T00:32:39;100682.88;;;22.84;93.59
58979;BME280;44763;50.464;30.612;2023-08-20T00:34:41;100681.61;;;22.79;94.26
58979;BME280;44763;50.464;30.612;2023-08-20T00:36:42;100683.54;;;22.75;95.45
58979;BME280;44763;50.464;30.612;2023-08-20T00:38:44;100684.85;;;22.78;95.31
58979;BME280;44763;50.464;30.612;2023-08-20T00:40:47;100681.00;;;22.87;95.62
58979;BME280;44763;50.464;30.612;2023-08-20T00:42:49;100680.85;;;22.96;95.32
58979;BME280;44763;50.464;30.612;2023-08-20T00:44:52;100679.47;;;23.02;94.17
58979;BME280;44763;50.464;30.612;2023-08-20T00:46:55;100682.45;;;23.00;93.67
58979;BME280;44763;50.464;30.612;2023-08-20T00:48:56;100686.38;;;22.95;93.68
58979;BME280;44763;50.464;30.612;2023-08-20T00:50:58;100688.52;;;22.90;92.72
58979;BME280;44763;50.464;30.612;2023-08-20T00:53:01;100691.61;;;22.88;92.16
58979;BME280;44763;50.464;30.612;2023-08-20T00:55:08;100682.39;;;22.91;92.28
58979;BME280;44763;50.464;30.612;2023-08-20T00:57:13;100678.88;;;22.94;91.22
58979;BME280;44763;50.464;30.612;2023-08-20T00:59:16;100678.95;;;22.99;91.68
58979;BME280;44763;50.464;30.612;2023-08-20T01:01:18;100680.52;;;22.94;91.67
58979;BME280;44763;50.464;30.612;2023-08-20T01:03:20;100680.58;;;22.89;91.50
58979;BME280;44763;50.464;30.612;2023-08-20T01:05:22;100678.66;;;22.90;92.27
58979;BME280;44763;50.464;30.612;2023-08-20T01:07:30;100672.36;;;22.87;91.50
58979;BME280;44763;50.464;30.612;2023-08-20T01:12:06;100663.59;;;22.92;92.27
58979;BME280;44763;50.464;30.612;2023-08-20T01:14:17;100660.52;;;22.88;92.77
58979;BME280;44763;50.464;30.612;2023-08-20T01:16:19;100662.02;;;22.78;92.70
58979;BME280;44763;50.464;30.612;2023-08-20T01:18:24;100660.25;;;22.72;92.81
58979;BME280;44763;50.464;30.612;2023-08-20T01:20:30;100659.04;;;22.70;93.79
58979;BME280;44763;50.464;30.612;2023-08-20T01:29:47;100669.15;;;22.78;92.58
58979;BME280;44763;50.464;30.612;2023-08-20T01:31:50;100667.84;;;22.78;93.38
58979;BME280;44763;50.464;30.612;2023-08-20T01:33:53;100664.33;;;22.80;92.29
58979;BME280;44763;50.464;30.612;2023-08-20T01:35:58;100667.88;;;22.85;91.25
58979;BME280;44763;50.464;30.612;2023-08-20T01:38:00;100665.30;;;22.95;90.95
58979;BME280;44763;50.464;30.612;2023-08-20T01:40:04;100662.34;;;23.02;89.98
58979;BME280;44763;50.464;30.612;2023-08-20T01:42:09;100661.10;;;23.08;89.48
58979;BME280;44763;50.464;30.612;2023-08-20T01:44:10;100661.75;;;23.17;88.89
58979;BME280;44763;50.464;30.612;2023-08-20T01:46:12;100659.94;;;23.25;88.21
58979;BME280;44763;50.464;30.612;2023-08-20T01:48:14;100658.49;;;23.32;87.46
58979;BME280;44763;50.464;30.612;2023-08-20T01:50:16;100657.41;;;23.37;87.17
58979;BME280;44763;50.464;30.612;2023-08-20T01:52:18;100656.73;;;23.42;86.80
58979;BME280;44763;50.464;30.612;2023-08-20T01:54:19;100654.25;;;23.47;86.47
58979;BME280;44763;50.464;30.612;2023-08-20T01:56:23;100655.52;;;23.53;86.02
58979;BME280;44763;50.464;30.612;2023-08-20T01:58:27;100657.66;;;23.58;85.73
58979;BME280;44763;50.464;30.612;2023-08-20T02:00:28;100654.35;;;23.59;85.51
58979;BME280;44763;50.464;30.612;2023-08-20T02:02:32;100658.33;;;23.59;85.73
58979;BME280;44763;50.464;30.612;2023-08-20T02:04:35;100660.11;;;23.59;85.63
58979;BME280;44763;50.464;30.612;2023-08-20T02:06:38;100661.85;;;23.59;85.79
58979;BME280;44763;50.464;30.612;2023-08-20T02:08:40;100665.09;;;23.61;85.70
58979;BME280;44763;50.464;30.612;2023-08-20T02:10:42;100665.14;;;23.60;85.70
58979;BME280;44763;50.464;30.612;2023-08-20T02:12:44;100664.02;;;23.55;86.25
58979;BME280;44763;50.464;30.612;2023-08-20T02:14:46;100666.04;;;23.39;86.93
58979;BME280;44763;50.464;30.612;2023-08-20T02:16:54;100667.36;;;23.20;87.85
58979;BME280;44763;50.464;30.612;2023-08-20T02:18:55;100667.90;;;23.02;88.81
58979;BME280;44763;50.464;30.612;2023-08-20T02:20:59;100666.77;;;22.89;89.66
58979;BME280;44763;50.464;30.612;2023-08-20T02:23:01;100664.66;;;22.90;90.21
58979;BME280;44763;50.464;30.612;2023-08-20T02:25:03;100665.45;;;22.96;91.15
58979;BME280;44763;50.464;30.612;2023-08-20T02:27:05;100668.17;;;22.96;91.04
58979;BME280;44763;50.464;30.612;2023-08-20T02:29:07;100668.88;;;22.86;91.12
58979;BME280;44763;50.464;30.612;2023-08-20T02:31:10;100670.25;;;22.72;91.67
58979;BME280;44763;50.464;30.612;2023-08-20T02:33:13;100671.23;;;22.58;92.63
58979;BME280;44763;50.464;30.612;2023-08-20T02:35:15;100668.12;;;22.47;93.61
58979;BME280;44763;50.464;30.612;2023-08-20T02:37:18;100665.96;;;22.36;94.59
58979;BME280;44763;50.464;30.612;2023-08-20T02:39:20;100668.62;;;22.29;95.42
58979;BME280;44763;50.464;30.612;2023-08-20T02:41:22;100666.05;;;22.25;98.11
58979;BME280;44763;50.464;30.612;2023-08-20T02:43:24;100666.42;;;22.27;99.29
58979;BME280;44763;50.464;30.612;2023-08-20T02:45:26;100668.19;;;22.28;98.19
58979;BME280;44763;50.464;30.612;2023-08-20T02:47:28;100669.94;;;22.25;98.49
58979;BME280;44763;50.464;30.612;2023-08-20T02:49:30;100670.38;;;22.23;98.28
58979;BME280;44763;50.464;30.612;2023-08-20T02:51:32;100668.80;;;22.22;99.65
58979;BME280;44763;50.464;30.612;2023-08-20T02:53:34;100670.16;;;22.23;99.52
58979;BME280;44763;50.464;30.612;2023-08-20T02:55:38;100668.84;;;22.21;99.02
58979;BME280;44763;50.464;30.612;2023-08-20T02:57:41;100669.84;;;22.16;98.95
58979;BME280;44763;50.464;30.612;2023-08-20T02:59:43;100665.91;;;22.10;99.00
58979;BME280;44763;50.464;30.612;2023-08-20T03:01:44;100662.64;;;22.08;99.17
58979;BME280;44763;50.464;30.612;2023-08-20T03:03:46;100665.29;;;22.17;98.99
58979;BME280;44763;50.464;30.612;2023-08-20T03:05:48;100664.71;;;22.21;98.79
58979;BME280;44763;50.464;30.612;2023-08-20T03:07:50;100667.05;;;22.14;99.19
58979;BME280;44763;50.464;30.612;2023-08-20T03:09:52;100660.58;;;22.09;100.00
58979;BME280;44763;50.464;30.612;2023-08-20T03:11:53;100664.42;;;22.07;100.00
58979;BME280;44763;50.464;30.612;2023-08-20T03:13:55;100667.11;;;22.11;100.00
58979;BME280;44763;50.464;30.612;2023-08-20T03:15:58;100669.05;;;22.21;100.00
58979;BME280;44763;50.464;30.612;2023-08-20T03:17:59;100667.31;;;22.29;100.00
58979;BME280;44763;50.464;30.612;2023-08-20T03:20:01;100669.85;;;22.48;99.91
58979;BME280;44763;50.464;30.612;2023-08-20T03:22:07;100667.34;;;22.66;98.72
58979;BME280;44763;50.464;30.612;2023-08-20T03:24:09;100668.14;;;22.82;97.41
58979;BME280;44763;50.464;30.612;2023-08-20T03:26:11;100662.04;;;22.97;96.36
58979;BME280;44763;50.464;30.612;2023-08-20T03:28:13;100663.85;;;23.15;95.44
58979;BME280;44763;50.464;30.612;2023-08-20T03:30:15;100664.13;;;23.41;94.49
58979;BME280;44763;50.464;30.612;2023-08-20T03:32:18;100664.95;;;23.76;92.50
58979;BME280;44763;50.464;30.612;2023-08-20T03:34:21;100662.16;;;24.15;90.25
58979;BME280;44763;50.464;30.612;2023-08-20T03:36:23;100661.23;;;24.49;87.66
58979;BME280;44763;50.464;30.612;2023-08-20T03:38:30;100661.89;;;24.78;85.60
58979;BME280;44763;50.464;30.612;2023-08-20T03:40:31;100656.74;;;25.07;83.53
58979;BME280;44763;50.464;30.612;2023-08-20T03:42:33;100660.52;;;25.27;81.62
58979;BME280;44763;50.464;30.612;2023-08-20T03:44:35;100658.54;;;25.45;80.38
58979;BME280;44763;50.464;30.612;2023-08-20T03:46:37;100659.81;;;25.62;79.26
58979;BME280;44763;50.464;30.612;2023-08-20T03:48:39;100658.52;;;25.77;78.03
58979;BME280;44763;50.464;30.612;2023-08-20T03:50:41;100658.64;;;25.87;77.38
58979;BME280;44763;50.464;30.612;2023-08-20T03:52:45;100658.17;;;26.10;76.41
58979;BME280;44763;50.464;30.612;2023-08-20T03:54:47;100658.37;;;26.39;74.81
58979;BME280;44763;50.464;30.612;2023-08-20T03:56:51;100660.25;;;26.57;73.36
58979;BME280;44763;50.464;30.612;2023-08-20T03:58:52;100654.36;;;26.69;72.64
58979;BME280;44763;50.464;30.612;2023-08-20T04:00:55;100653.95;;;26.76;72.11
58979;BME280;44763;50.464;30.612;2023-08-20T04:02:57;100652.40;;;26.89;71.40
58979;BME280;44763;50.464;30.612;2023-08-20T04:04:59;100646.67;;;27.01;70.11
58979;BME280;44763;50.464;30.612;2023-08-20T04:07:01;100644.08;;;27.18;68.89
58979;BME280;44763;50.464;30.612;2023-08-20T04:09:06;100632.48;;;27.33;68.31
58979;BME280;44763;50.464;30.612;2023-08-20T04:11:08;100640.83;;;27.60;67.38
58979;BME280;44763;50.464;30.612;2023-08-20T04:13:13;100642.05;;;27.86;66.41
58979;BME280;44763;50.464;30.612;2023-08-20T04:15:15;100639.45;;;28.04;64.90
58979;BME280;44763;50.464;30.612;2023-08-20T04:17:18;100638.64;;;28.12;64.58
58979;BME280;44763;50.464;30.612;2023-08-20T04:19:20;100635.77;;;28.18;63.78
58979;BME280;44763;50.464;30.612;2023-08-20T04:21:22;100631.77;;;28.22;63.46
58979;BME280;44763;50.464;30.612;2023-08-20T04:23:24;100631.23;;;28.29;63.88
58979;BME280;44763;50.464;30.612;2023-08-20T04:25:27;100630.73;;;28.40;63.46
58979;BME280;44763;50.464;30.612;2023-08-20T04:27:29;100628.45;;;28.52;62.52
58979;BME280;44763;50.464;30.612;2023-08-20T04:29:30;100626.80;;;28.65;62.21
58979;BME280;44763;50.464;30.612;2023-08-20T04:31:33;100623.56;;;28.79;62.20
58979;BME280;44763;50.464;30.612;2023-08-20T04:33:39;100625.02;;;28.94;60.86
58979;BME280;44763;50.464;30.612;2023-08-20T04:35:41;100623.19;;;29.10;61.01
58979;BME280;44763;50.464;30.612;2023-08-20T04:37:43;100621.20;;;29.32;60.47
58979;BME280;44763;50.464;30.612;2023-08-20T04:39:45;100626.48;;;29.64;60.04
58979;BME280;44763;50.464;30.612;2023-08-20T04:41:48;100623.97;;;30.04;58.53
58979;BME280;44763;50.464;30.612;2023-08-20T04:43:52;100618.38;;;30.41;56.47
58979;BME280;44763;50.464;30.612;2023-08-20T04:45:55;100623.08;;;30.69;54.35
58979;BME280;44763;50.464;30.612;2023-08-20T04:47:57;100625.60;;;30.83;54.05
58979;BME280;44763;50.464;30.612;2023-08-20T04:49:58;100621.00;;;30.96;53.95
58979;BME280;44763;50.464;30.612;2023-08-20T04:52:00;100624.00;;;31.10;53.46
58979;BME280;44763;50.464;30.612;2023-08-20T04:54:04;100623.94;;;31.27;52.84
58979;BME280;44763;50.464;30.612;2023-08-20T04:56:06;100621.81;;;31.39;52.35
58979;BME280;44763;50.464;30.612;2023-08-20T04:58:09;100620.95;;;31.46;52.02
58979;BME280;44763;50.464;30.612;2023-08-20T05:00:11;100623.48;;;31.54;52.09
58979;BME280;44763;50.464;30.612;2023-08-20T05:02:19;100621.91;;;31.66;51.80
58979;BME280;44763;50.464;30.612;2023-08-20T05:04:26;100623.90;;;31.79;51.98
58979;BME280;44763;50.464;30.612;2023-08-20T05:06:28;100625.52;;;32.06;51.46
58979;BME280;44763;50.464;30.612;2023-08-20T05:08:30;100611.64;;;32.35;50.57
58979;BME280;44763;50.464;30.612;2023-08-20T05:10:31;100617.83;;;32.75;49.66
58979;BME280;44763;50.464;30.612;2023-08-20T05:12:34;100620.22;;;33.03;48.50
58979;BME280;44763;50.464;30.612;2023-08-20T05:14:36;100622.48;;;33.32;47.16
58979;BME280;44763;50.464;30.612;2023-08-20T05:16:38;100619.73;;;33.62;45.98
58979;BME280;44763;50.464;30.612;2023-08-20T05:18:40;100616.17;;;33.87;45.84
58979;BME280;44763;50.464;30.612;2023-08-20T05:20:42;100617.09;;;34.15;45.06
58979;BME280;44763;50.464;30.612;2023-08-20T05:22:44;100613.66;;;34.41;44.31
58979;BME280;44763;50.464;30.612;2023-08-20T05:24:46;100614.08;;;34.56;43.70
58979;BME280;44763;50.464;30.612;2023-08-20T05:29:08;100616.51;;;34.64;43.53
58979;BME280;44763;50.464;30.612;2023-08-20T05:31:10;100613.06;;;34.63;43.42
58979;BME280;44763;50.464;30.612;2023-08-20T05:33:12;100612.51;;;34.59;42.78
58979;BME280;44763;50.464;30.612;2023-08-20T05:35:14;100606.32;;;34.53;42.95
58979;BME280;44763;50.464;30.612;2023-08-20T05:37:16;100607.14;;;34.57;42.63
58979;BME280;44763;50.464;30.612;2023-08-20T05:39:19;100605.78;;;34.61;42.31
58979;BME280;44763;50.464;30.612;2023-08-20T05:41:21;100604.44;;;34.63;42.60
58979;BME280;44763;50.464;30.612;2023-08-20T05:43:23;100599.39;;;34.61;42.12
58979;BME280;44763;50.464;30.612;2023-08-20T05:45:25;100595.97;;;34.63;42.88
58979;BME280;44763;50.464;30.612;2023-08-20T05:47:28;100596.13;;;34.67;42.62
58979;BME280;44763;50.464;30.612;2023-08-20T05:49:30;100593.64;;;34.73;41.79
58979;BME280;44763;50.464;30.612;2023-08-20T05:53:47;100590.61;;;34.82;41.47
58979;BME280;44763;50.464;30.612;2023-08-20T05:55:48;100587.53;;;34.88;41.26
58979;BME280;44763;50.464;30.612;2023-08-20T05:57:50;100587.82;;;34.84;41.40
58979;BME280;44763;50.464;30.612;2023-08-20T05:59:52;100588.58;;;34.86;41.09
58979;BME280;44763;50.464;30.612;2023-08-20T06:01:54;100585.55;;;34.90;40.96
58979;BME280;44763;50.464;30.612;2023-08-20T06:03:56;100585.35;;;34.88;41.17
58979;BME280;44763;50.464;30.612;2023-08-20T06:05:58;100582.25;;;34.91;40.74
58979;BME280;44763;50.464;30.612;2023-08-20T06:08:05;100587.89;;;34.94;40.77
58979;BME280;44763;50.464;30.612;2023-08-20T06:10:10;100590.25;;;34.91;40.57
58979;BME280;44763;50.464;30.612;2023-08-20T06:12:13;100592.48;;;34.87;40.91
58979;BME280;44763;50.464;30.612;2023-08-20T06:14:15;100592.55;;;34.88;41.08
58979;BME280;44763;50.464;30.612;2023-08-20T06:16:16;100596.32;;;34.95;40.56
58979;BME280;44763;50.464;30.612;2023-08-20T06:18:18;100595.89;;;35.00;40.68
58979;BME280;44763;50.464;30.612;2023-08-20T06:20:20;100592.61;;;35.08;40.69
58979;BME280;44763;50.464;30.612;2023-08-20T06:22:22;100590.41;;;35.19;40.41
58979;BME280;44763;50.464;30.612;2023-08-20T06:24:24;100590.44;;;35.25;39.70
58979;BME280;44763;50.464;30.612;2023-08-20T06:26:26;100587.54;;;35.26;39.82
58979;BME280;44763;50.464;30.612;2023-08-20T06:28:28;100582.95;;;35.26;39.68
58979;BME280;44763;50.464;30.612;2023-08-20T06:30:30;100587.02;;;35.24;39.54
58979;BME280;44763;50.464;30.612;2023-08-20T06:32:31;100590.83;;;35.25;39.70
58979;BME280;44763;50.464;30.612;2023-08-20T06:34:34;100588.15;;;35.18;40.02
58979;BME280;44763;50.464;30.612;2023-08-20T06:36:36;100583.08;;;35.10;39.66
58979;BME280;44763;50.464;30.612;2023-08-20T06:38:38;100586.73;;;35.00;39.88
58979;BME280;44763;50.464;30.612;2023-08-20T06:40:40;100583.77;;;34.81;40.21
58979;BME280;44763;50.464;30.612;2023-08-20T06:42:41;100585.36;;;34.69;40.38
58979;BME280;44763;50.464;30.612;2023-08-20T06:44:43;100584.20;;;34.54;40.96
58979;BME280;44763;50.464;30.612;2023-08-20T06:46:45;100585.36;;;34.41;41.18
58979;BME280;44763;50.464;30.612;2023-08-20T06:48:47;100585.05;;;34.29;41.56
58979;BME280;44763;50.464;30.612;2023-08-20T06:50:48;100580.38;;;34.11;41.98
58979;BME280;44763;50.464;30.612;2023-08-20T06:52:52;100575.99;;;34.04;42.00
58979;BME280;44763;50.464;30.612;2023-08-20T06:54:54;100576.14;;;34.05;42.51
58979;BME280;44763;50.464;30.612;2023-08-20T06:56:56;100576.89;;;34.09;42.61
58979;BME280;44763;50.464;30.612;2023-08-20T06:58:58;100581.13;;;34.19;41.89
58979;BME280;44763;50.464;30.612;2023-08-20T07:01:00;100579.20;;;34.32;41.28
58979;BME280;44763;50.464;30.612;2023-08-20T07:03:08;100582.74;;;34.37;41.13
58979;BME280;44763;50.464;30.612;2023-08-20T07:05:10;100581.11;;;34.30;41.15
58979;BME280;44763;50.464;30.612;2023-08-20T07:07:12;100577.18;;;34.12;41.36
58979;BME280;44763;50.464;30.612;2023-08-20T07:09:16;100578.37;;;34.02;40.91
58979;BME280;44763;50.464;30.612;2023-08-20T07:11:18;100581.11;;;33.87;41.01
58979;BME280;44763;50.464;30.612;2023-08-20T07:13:20;100579.40;;;33.72;41.46
58979;BME280;44763;50.464;30.612;2023-08-20T07:15:23;100581.49;;;33.63;41.60
58979;BME280;44763;50.464;30.612;2023-08-20T07:17:25;100581.95;;;33.52;41.49
58979;BME280;44763;50.464;30.612;2023-08-20T07:19:27;100579.86;;;33.41;42.13
58979;BME280;44763;50.464;30.612;2023-08-20T07:21:29;100580.20;;;33.32;41.93
58979;BME280;44763;50.464;30.612;2023-08-20T07:23:31;100580.88;;;33.24;41.78
58979;BME280;44763;50.464;30.612;2023-08-20T07:25:32;100581.55;;;33.10;41.10
58979;BME280;44763;50.464;30.612;2023-08-20T07:27:34;100586.50;;;32.91;41.40
58979;BME280;44763;50.464;30.612;2023-08-20T07:29:37;100583.54;;;32.75;42.05
58979;BME280;44763;50.464;30.612;2023-08-20T07:31:39;100579.83;;;32.71;42.79
58979;BME280;44763;50.464;30.612;2023-08-20T07:33:46;100585.52;;;32.70;42.89
58979;BME280;44763;50.464;30.612;2023-08-20T07:35:49;100583.41;;;32.68;42.65
58979;BME280;44763;50.464;30.612;2023-08-20T07:37:50;100581.69;;;32.63;42.70
58979;BME280;44763;50.464;30.612;2023-08-20T07:39:54;100582.42;;;32.58;42.72
58979;BME280;44763;50.464;30.612;2023-08-20T07:41:56;100579.83;;;32.51;42.26
58979;BME280;44763;50.464;30.612;2023-08-20T07:43:57;100579.52;;;32.45;42.37
58979;BME280;44763;50.464;30.612;2023-08-20T07:45:59;100571.53;;;32.41;41.64
58979;BME280;44763;50.464;30.612;2023-08-20T07:48:01;100579.89;;;32.49;40.95
58979;BME280;44763;50.464;30.612;2023-08-20T07:50:07;100579.59;;;32.47;40.96
58979;BME280;44763;50.464;30.612;2023-08-20T07:52:09;100579.46;;;32.42;41.57
58979;BME280;44763;50.464;30.612;2023-08-20T07:54:10;100578.63;;;32.39;41.22
58979;BME280;44763;50.464;30.612;2023-08-20T07:56:12;100574.71;;;32.38;41.41
58979;BME280;44763;50.464;30.612;2023-08-20T07:58:14;100573.02;;;32.36;41.07
58979;BME280;44763;50.464;30.612;2023-08-20T08:00:16;100571.73;;;32.38;41.03
58979;BME280;44763;50.464;30.612;2023-08-20T08:02:18;100568.55;;;32.45;41.63
58979;BME280;44763;50.464;30.612;2023-08-20T08:04:20;100570.39;;;32.50;42.38
58979;BME280;44763;50.464;30.612;2023-08-20T08:06:22;100567.15;;;32.53;42.13
58979;BME280;44763;50.464;30.612;2023-08-20T08:08:25;100567.85;;;32.53;42.10
58979;BME280;44763;50.464;30.612;2023-08-20T08:10:27;100564.99;;;32.51;41.89
58979;BME280;44763;50.464;30.612;2023-08-20T08:12:29;100565.05;;;32.52;41.10
58979;BME280;44763;50.464;30.612;2023-08-20T08:14:30;100563.52;;;32.55;40.91
58979;BME280;44763;50.464;30.612;2023-08-20T08:16:32;100562.47;;;32.62;40.90
58979;BME280;44763;50.464;30.612;2023-08-20T08:18:34;100558.05;;;32.63;40.81
58979;BME280;44763;50.464;30.612;2023-08-20T08:20:36;100559.06;;;32.69;40.53
58979;BME280;44763;50.464;30.612;2023-08-20T08:22:39;100556.39;;;32.71;40.06
58979;BME280;44763;50.464;30.612;2023-08-20T08:24:41;100556.01;;;32.62;39.51
58979;BME280;44763;50.464;30.612;2023-08-20T08:26:44;100559.35;;;32.51;39.85
58979;BME280;44763;50.464;30.612;2023-08-20T08:28:45;100558.84;;;32.50;39.81
58979;BME280;44763;50.464;30.612;2023-08-20T08:30:48;100554.21;;;32.53;39.74
58979;BME280;44763;50.464;30.612;2023-08-20T08:32:49;100551.70;;;32.57;39.88
58979;BME280;44763;50.464;30.612;2023-08-20T08:34:51;100553.89;;;32.64;39.52
58979;BME280;44763;50.464;30.612;2023-08-20T08:36:53;100550.29;;;32.72;39.40
58979;BME280;44763;50.464;30.612;2023-08-20T08:38:55;100549.95;;;32.78;39.19
58979;BME280;44763;50.464;30.612;2023-08-20T08:40:57;100550.36;;;32.76;39.42
58979;BME280;44763;50.464;30.612;2023-08-20T08:43:00;100543.94;;;32.77;39.60
58979;BME280;44763;50.464;30.612;2023-08-20T08:45:03;100544.08;;;32.81;39.45
58979;BME280;44763;50.464;30.612;2023-08-20T08:47:05;100541.38;;;32.84;38.81
58979;BME280;44763;50.464;30.612;2023-08-20T08:49:08;100538.00;;;32.89;38.02
58979;BME280;44763;50.464;30.612;2023-08-20T08:51:12;100538.02;;;32.91;37.69
58979;BME280;44763;50.464;30.612;2023-08-20T08:53:14;100538.19;;;32.90;37.67
58979;BME280;44763;50.464;30.612;2023-08-20T08:55:16;100536.60;;;32.89;37.84
58979;BME280;44763;50.464;30.612;2023-08-20T08:57:18;100539.30;;;32.94;38.06
58979;BME280;44763;50.464;30.612;2023-08-20T08:59:20;100537.51;;;33.02;38.20
58979;BME280;44763;50.464;30.612;2023-08-20T09:01:22;100540.15;;;33.03;38.26
58979;BME280;44763;50.464;30.612;2023-08-20T09:03:24;100540.30;;;33.03;38.22
58979;BME280;44763;50.464;30.612;2023-08-20T09:05:26;100545.25;;;33.03;38.54
58979;BME280;44763;50.464;30.612;2023-08-20T09:07:28;100546.52;;;32.99;38.38
58979;BME280;44763;50.464;30.612;2023-08-20T09:09:32;100548.41;;;32.93;38.05
58979;BME280;44763;50.464;30.612;2023-08-20T09:11:34;100546.29;;;32.83;38.13
58979;BME280;44763;50.464;30.612;2023-08-20T09:13:41;100548.96;;;32.81;38.31
58979;BME280;44763;50.464;30.612;2023-08-20T09:15:50;100546.14;;;32.79;38.35
58979;BME280;44763;50.464;30.612;2023-08-20T09:17:53;100549.32;;;32.75;38.68
58979;BME280;44763;50.464;30.612;2023-08-20T09:19:55;100543.71;;;32.73;38.38
58979;BME280;44763;50.464;30.612;2023-08-20T09:21:59;100541.48;;;32.71;38.23
58979;BME280;44763;50.464;30.612;2023-08-20T09:24:01;100542.90;;;32.74;38.03
58979;BME280;44763;50.464;30.612;2023-08-20T09:26:05;100542.52;;;32.79;37.80
58979;BME280;44763;50.464;30.612;2023-08-20T09:28:07;100541.48;;;32.85;37.68
58979;BME280;44763;50.464;30.612;2023-08-20T09:30:09;100533.67;;;32.91;38.07
58979;BME280;44763;50.464;30.612;2023-08-20T09:32:16;100539.02;;;32.90;38.31
58979;BME280;44763;50.464;30.612;2023-08-20T09:34:18;100535.36;;;32.80;38.51
58979;BME280;44763;50.464;30.612;2023-08-20T09:36:30;100533.47;;;32.71;38.36
58979;BME280;44763;50.464;30.612;2023-08-20T09:38:36;100530.60;;;32.69;38.69
58979;BME280;44763;50.464;30.612;2023-08-20T09:40:39;100531.25;;;32.67;38.18
58979;BME280;44763;50.464;30.612;2023-08-20T09:42:43;100533.52;;;32.65;38.18
58979;BME280;44763;50.464;30.612;2023-08-20T09:44:46;100535.04;;;32.69;38.13
58979;BME280;44763;50.464;30.612;2023-08-20T09:46:52;100536.02;;;32.74;38.10
58979;BME280;44763;50.464;30.612;2023-08-20T09:48:56;100532.42;;;32.77;37.79
58979;BME280;44763;50.464;30.612;2023-08-20T09:50:59;100534.49;;;32.77;37.89
58979;BME280;44763;50.464;30.612;2023-08-20T09:53:07;100530.46;;;32.80;37.91
58979;BME280;44763;50.464;30.612;2023-08-20T09:55:16;100523.89;;;32.85;38.03
58979;BME280;44763;50.464;30.612;2023-08-20T09:57:38;100522.17;;;32.96;37.79
58979;BME280;44763;50.464;30.612;2023-08-20T09:59:42;100520.41;;;33.01;37.79
58979;BME280;44763;50.464;30.612;2023-08-20T10:01:44;100519.58;;;33.06;37.43
58979;BME280;44763;50.464;30.612;2023-08-20T10:03:50;100518.45;;;33.11;36.99
58979;BME280;44763;50.464;30.612;2023-08-20T10:05:54;100518.11;;;33.14;36.98
58979;BME280;44763;50.464;30.612;2023-08-20T10:07:58;100509.29;;;33.15;36.91
58979;BME280;44763;50.464;30.612;2023-08-20T10:10:03;100502.27;;;33.17;36.67
58979;BME280;44763;50.464;30.612;2023-08-20T10:12:06;100505.71;;;33.21;35.53
58979;BME280;44763;50.464;30.612;2023-08-20T10:14:08;100505.09;;;33.25;35.08
58979;BME280;44763;50.464;30.612;2023-08-20T10:16:13;100503.06;;;33.30;34.27
58979;BME280;44763;50.464;30.612;2023-08-20T10:18:19;100502.98;;;33.34;34.21
58979;BME280;44763;50.464;30.612;2023-08-20T10:20:21;100500.44;;;33.32;33.67
58979;BME280;44763;50.464;30.612;2023-08-20T10:22:42;100505.82;;;33.24;33.74
58979;BME280;44763;50.464;30.612;2023-08-20T10:24:52;100502.64;;;33.14;34.00
58979;BME280;44763;50.464;30.612;2023-08-20T10:27:10;100503.77;;;33.11;34.17
58979;BME280;44763;50.464;30.612;2023-08-20T10:29:35;100502.59;;;33.09;34.24
58979;BME280;44763;50.464;30.612;2023-08-20T10:31:46;100501.86;;;33.09;34.32
58979;BME280;44763;50.464;30.612;2023-08-20T10:33:50;100499.83;;;33.05;34.45
58979;BME280;44763;50.464;30.612;2023-08-20T10:35:52;100496.94;;;33.04;34.44
58979;BME280;44763;50.464;30.612;2023-08-20T10:38:06;100488.86;;;33.07;34.44
58979;BME280;44763;50.464;30.612;2023-08-20T10:40:08;100486.79;;;33.14;34.21
58979;BME280;44763;50.464;30.612;2023-08-20T10:44:23;100484.00;;;33.29;34.48
58979;BME280;44763;50.464;30.612;2023-08-20T10:46:27;100479.91;;;33.36;34.47
58979;BME280;44763;50.464;30.612;2023-08-20T10:48:33;100477.66;;;33.39;34.33
58979;BME280;44763;50.464;30.612;2023-08-20T10:50:39;100475.25;;;33.36;34.23
58979;BME280;44763;50.464;30.612;2023-08-20T10:52:49;100462.82;;;33.30;34.24